(°C)
(°C)
-2°
-3°
-3°
-2°
-1°
SZ
SZ
SZ
SZ
SZ
SSZ
S
(km/h)
8-17
8-16
7-16
7-15
6-14
5-16
6-16
(mm)
0
0
0
0
0
0
0
(%)
0
0
0
0
0
0
0

Podizanje Sunca

/ -22.4°
sun-icon
UV 4
07:13
19:42
Rastući mesec (161°)
19:38
04:42

METAR za 51.15°S 51.54°I (UARR)

Vreme Uslovi Temperatura/
Tačka rose
Vetar Vidljivost Prognoza Oblaci Pritisak Promena Neobrađeno
VFR 1°C / -1°C 350º 4kt >10km - Clouds and Visibility OK 1023 No Significant change UARR 182300Z 35002MPS CAVOK 01/M01 Q1023 R04/CLRD70 NOSIG RMK QFE764/1018
VFR 2°C / -1°C 350º 8kt >10km - Clouds and Visibility OK 1022 No Significant change UARR 182200Z 35004MPS CAVOK 02/M01 Q1022 R04/CLRD70 NOSIG RMK QFE763/1018
VFR 3°C / -1°C 350º 8kt >10km - Clouds and Visibility OK 1022 No Significant change UARR 182100Z 35004MPS CAVOK 03/M01 Q1022 R04/CLRD70 NOSIG RMK QFE763/1018
VFR 3°C / -1°C 350º 6kt >10km - Clouds and Visibility OK 1022 No Significant change UARR 182030Z 35003MPS CAVOK 03/M01 Q1022 R04/CLRD70 NOSIG RMK QFE763/1017
VFR 5°C / -1°C 340º 8kt >10km - Clouds and Visibility OK 1022 No Significant change UARR 182000Z 34004MPS CAVOK 05/M01 Q1022 R04/CLRD70 NOSIG RMK QFE763/1017
VFR 4°C / -1°C 350º 6kt >10km - Clouds and Visibility OK 1021 No Significant change UARR 181930Z 35003MPS CAVOK 04/M01 Q1021 R04/CLRD70 NOSIG RMK QFE763/1017
VFR 6°C / 0°C 10º 10kt >10km - Clouds and Visibility OK 1021 No Significant change UARR 181900Z 01005MPS CAVOK 06/M00 Q1021 R22/CLRD70 NOSIG RMK QFE762/1016
VFR 7°C / -1°C 360º 12kt >10km - Clouds and Visibility OK 1021 No Significant change UARR 181830Z 36006MPS CAVOK 07/M01 Q1021 R22/CLRD70 NOSIG RMK QFE762/1016
VFR 8°C / -1°C 360º 10kt >10km - Clouds and Visibility OK 1021 No Significant change UARR 181800Z 36005MPS CAVOK 08/M01 Q1021 R22/CLRD70 NOSIG RMK QFE762/1016
VFR 7°C / -2°C 340º 8kt >10km - Clouds and Visibility OK 1020 No Significant change UARR 181730Z 34004MPS CAVOK 07/M02 Q1020 R22/CLRD70 NOSIG RMK QFE762/1016
VFR 8°C / -1°C 340º 10kt >10km - Clouds and Visibility OK 1020 No Significant change UARR 181700Z 34005MPS CAVOK 08/M01 Q1020 R22/CLRD70 NOSIG RMK QFE762/1016
VFR 6°C / -2°C 310º 6kt >10km - Clouds and Visibility OK 1020 No Significant change UARR 181630Z 31003MPS CAVOK 06/M02 Q1020 R04/CLRD70 NOSIG RMK QFE761/1015
VFR 8°C / -1°C 300º 6kt >10km - Clouds and Visibility OK 1019 No Significant change UARR 181600Z 30003MPS CAVOK 08/M01 Q1019 R04/CLRD70 NOSIG RMK QFE761/1015
VFR 9°C / -1°C 300º 4kt >10km - Clouds and Visibility OK 1019 No Significant change UARR 181530Z 30002MPS CAVOK 09/M01 Q1019 R04/CLRD70 NOSIG RMK QFE761/1015
VFR 9°C / -2°C 290º 4kt >10km - Clouds and Visibility OK 1019 No Significant change UARR 181500Z 29002MPS CAVOK 09/M02 Q1019 R04/CLRD70 NOSIG RMK QFE761/1015
VFR 11°C / -2°C 280º 6kt >10km - Clouds and Visibility OK 1019 No Significant change UARR 181430Z 28003MPS CAVOK 11/M02 Q1019 R04/CLRD70 NOSIG RMK QFE761/1014
VFR 13°C / -2°C 310º 8kt >10km - Clouds and Visibility OK 1019 No Significant change UARR 181400Z 31004MPS CAVOK 13/M02 Q1019 R04/CLRD70 NOSIG RMK QFE761/1014
VFR 14°C / -2°C 330º variable 300º to 360º 8kt >10km - Clouds and Visibility OK 1019 No Significant change UARR 181330Z 33004MPS 300V360 CAVOK 14/M02 Q1019 R04/CLRD70 NOSIG RMK QFE760/1014
VFR 15°C / -1°C 310º variable 280º to 340º 10kt >10km - Clouds and Visibility OK 1018 No Significant change UARR 181300Z 31005MPS 280V340 CAVOK 15/M01 Q1018 R04/CLRD70 NOSIG RMK QFE760/1014
VFR 15°C / -2°C 330º variable 270º to 350º 10kt >10km - Clouds and Visibility OK 1018 No Significant change UARR 181230Z 33005MPS 270V350 CAVOK 15/M02 Q1018 R04/CLRD70 NOSIG RMK QFE760/1014
VFR 15°C / -2°C 350º 10kt >10km - Clouds and Visibility OK 1018 No Significant change UARR 181200Z 35005MPS CAVOK 15/M02 Q1018 R04/CLRD70 NOSIG RMK QFE760/1014
VFR 14°C / -2°C 340º variable 300º to 010º 10kt >10km - Clouds and Visibility OK 1018 No Significant change UARR 181130Z 34005MPS 300V010 CAVOK 14/M02 Q1018 R04/CLRD70 NOSIG RMK QFE760/1014
VFR 15°C / -2°C 340º variable 290º to 020º 10kt >10km - Clouds and Visibility OK 1018 No Significant change UARR 181100Z 34005MPS 290V020 CAVOK 15/M02 Q1018 R04/CLRD70 NOSIG RMK QFE760/1014
VFR 15°C / -2°C 340º variable 310º to 010º 10kt >10km - Clouds and Visibility OK 1018 No Significant change UARR 181030Z 34005MPS 310V010 CAVOK 15/M02 Q1018 R04/CLRD70 NOSIG RMK QFE760/1014

VFR

1°C / -1°C

[Više]
Vetar 350º 4kt
Vidljivost >10km
Prognoza -
Oblaci Clouds and Visibility OK
Pritisak 1023
Promena No Significant change
Neobrađeno UARR 182300Z 35002MPS CAVOK 01/M01 Q1023 R04/CLRD70 NOSIG RMK QFE764/1018

VFR

2°C / -1°C

[Više]
Vetar 350º 8kt
Vidljivost >10km
Prognoza -
Oblaci Clouds and Visibility OK
Pritisak 1022
Promena No Significant change
Neobrađeno UARR 182200Z 35004MPS CAVOK 02/M01 Q1022 R04/CLRD70 NOSIG RMK QFE763/1018

VFR

3°C / -1°C

[Više]
Vetar 350º 8kt
Vidljivost >10km
Prognoza -
Oblaci Clouds and Visibility OK
Pritisak 1022
Promena No Significant change
Neobrađeno UARR 182100Z 35004MPS CAVOK 03/M01 Q1022 R04/CLRD70 NOSIG RMK QFE763/1018

VFR

3°C / -1°C

[Više]
Vetar 350º 6kt
Vidljivost >10km
Prognoza -
Oblaci Clouds and Visibility OK
Pritisak 1022
Promena No Significant change
Neobrađeno UARR 182030Z 35003MPS CAVOK 03/M01 Q1022 R04/CLRD70 NOSIG RMK QFE763/1017

VFR

5°C / -1°C

[Više]
Vetar 340º 8kt
Vidljivost >10km
Prognoza -
Oblaci Clouds and Visibility OK
Pritisak 1022
Promena No Significant change
Neobrađeno UARR 182000Z 34004MPS CAVOK 05/M01 Q1022 R04/CLRD70 NOSIG RMK QFE763/1017

VFR

4°C / -1°C

[Više]
Vetar 350º 6kt
Vidljivost >10km
Prognoza -
Oblaci Clouds and Visibility OK
Pritisak 1021
Promena No Significant change
Neobrađeno UARR 181930Z 35003MPS CAVOK 04/M01 Q1021 R04/CLRD70 NOSIG RMK QFE763/1017

VFR

6°C / 0°C

[Više]
Vetar 10º 10kt
Vidljivost >10km
Prognoza -
Oblaci Clouds and Visibility OK
Pritisak 1021
Promena No Significant change
Neobrađeno UARR 181900Z 01005MPS CAVOK 06/M00 Q1021 R22/CLRD70 NOSIG RMK QFE762/1016

VFR

7°C / -1°C

[Više]
Vetar 360º 12kt
Vidljivost >10km
Prognoza -
Oblaci Clouds and Visibility OK
Pritisak 1021
Promena No Significant change
Neobrađeno UARR 181830Z 36006MPS CAVOK 07/M01 Q1021 R22/CLRD70 NOSIG RMK QFE762/1016

VFR

8°C / -1°C

[Više]
Vetar 360º 10kt
Vidljivost >10km
Prognoza -
Oblaci Clouds and Visibility OK
Pritisak 1021
Promena No Significant change
Neobrađeno UARR 181800Z 36005MPS CAVOK 08/M01 Q1021 R22/CLRD70 NOSIG RMK QFE762/1016

VFR

7°C / -2°C

[Više]
Vetar 340º 8kt
Vidljivost >10km
Prognoza -
Oblaci Clouds and Visibility OK
Pritisak 1020
Promena No Significant change
Neobrađeno UARR 181730Z 34004MPS CAVOK 07/M02 Q1020 R22/CLRD70 NOSIG RMK QFE762/1016

VFR

8°C / -1°C

[Više]
Vetar 340º 10kt
Vidljivost >10km
Prognoza -
Oblaci Clouds and Visibility OK
Pritisak 1020
Promena No Significant change
Neobrađeno UARR 181700Z 34005MPS CAVOK 08/M01 Q1020 R22/CLRD70 NOSIG RMK QFE762/1016

VFR

6°C / -2°C

[Više]
Vetar 310º 6kt
Vidljivost >10km
Prognoza -
Oblaci Clouds and Visibility OK
Pritisak 1020
Promena No Significant change
Neobrađeno UARR 181630Z 31003MPS CAVOK 06/M02 Q1020 R04/CLRD70 NOSIG RMK QFE761/1015

VFR

8°C / -1°C

[Više]
Vetar 300º 6kt
Vidljivost >10km
Prognoza -
Oblaci Clouds and Visibility OK
Pritisak 1019
Promena No Significant change
Neobrađeno UARR 181600Z 30003MPS CAVOK 08/M01 Q1019 R04/CLRD70 NOSIG RMK QFE761/1015

VFR

9°C / -1°C

[Više]
Vetar 300º 4kt
Vidljivost >10km
Prognoza -
Oblaci Clouds and Visibility OK
Pritisak 1019
Promena No Significant change
Neobrađeno UARR 181530Z 30002MPS CAVOK 09/M01 Q1019 R04/CLRD70 NOSIG RMK QFE761/1015

VFR

9°C / -2°C

[Više]
Vetar 290º 4kt
Vidljivost >10km
Prognoza -
Oblaci Clouds and Visibility OK
Pritisak 1019
Promena No Significant change
Neobrađeno UARR 181500Z 29002MPS CAVOK 09/M02 Q1019 R04/CLRD70 NOSIG RMK QFE761/1015

VFR

11°C / -2°C

[Više]
Vetar 280º 6kt
Vidljivost >10km
Prognoza -
Oblaci Clouds and Visibility OK
Pritisak 1019
Promena No Significant change
Neobrađeno UARR 181430Z 28003MPS CAVOK 11/M02 Q1019 R04/CLRD70 NOSIG RMK QFE761/1014

VFR

13°C / -2°C

[Više]
Vetar 310º 8kt
Vidljivost >10km
Prognoza -
Oblaci Clouds and Visibility OK
Pritisak 1019
Promena No Significant change
Neobrađeno UARR 181400Z 31004MPS CAVOK 13/M02 Q1019 R04/CLRD70 NOSIG RMK QFE761/1014

VFR

14°C / -2°C

[Više]
Vetar 330º variable 300º to 360º 8kt
Vidljivost >10km
Prognoza -
Oblaci Clouds and Visibility OK
Pritisak 1019
Promena No Significant change
Neobrađeno UARR 181330Z 33004MPS 300V360 CAVOK 14/M02 Q1019 R04/CLRD70 NOSIG RMK QFE760/1014

VFR

15°C / -1°C

[Više]
Vetar 310º variable 280º to 340º 10kt
Vidljivost >10km
Prognoza -
Oblaci Clouds and Visibility OK
Pritisak 1018
Promena No Significant change
Neobrađeno UARR 181300Z 31005MPS 280V340 CAVOK 15/M01 Q1018 R04/CLRD70 NOSIG RMK QFE760/1014

VFR

15°C / -2°C

[Više]
Vetar 330º variable 270º to 350º 10kt
Vidljivost >10km
Prognoza -
Oblaci Clouds and Visibility OK
Pritisak 1018
Promena No Significant change
Neobrađeno UARR 181230Z 33005MPS 270V350 CAVOK 15/M02 Q1018 R04/CLRD70 NOSIG RMK QFE760/1014

VFR

15°C / -2°C

[Više]
Vetar 350º 10kt
Vidljivost >10km
Prognoza -
Oblaci Clouds and Visibility OK
Pritisak 1018
Promena No Significant change
Neobrađeno UARR 181200Z 35005MPS CAVOK 15/M02 Q1018 R04/CLRD70 NOSIG RMK QFE760/1014

VFR

14°C / -2°C

[Više]
Vetar 340º variable 300º to 010º 10kt
Vidljivost >10km
Prognoza -
Oblaci Clouds and Visibility OK
Pritisak 1018
Promena No Significant change
Neobrađeno UARR 181130Z 34005MPS 300V010 CAVOK 14/M02 Q1018 R04/CLRD70 NOSIG RMK QFE760/1014

VFR

15°C / -2°C

[Više]
Vetar 340º variable 290º to 020º 10kt
Vidljivost >10km
Prognoza -
Oblaci Clouds and Visibility OK
Pritisak 1018
Promena No Significant change
Neobrađeno UARR 181100Z 34005MPS 290V020 CAVOK 15/M02 Q1018 R04/CLRD70 NOSIG RMK QFE760/1014

VFR

15°C / -2°C

[Više]
Vetar 340º variable 310º to 010º 10kt
Vidljivost >10km
Prognoza -
Oblaci Clouds and Visibility OK
Pritisak 1018
Promena No Significant change
Neobrađeno UARR 181030Z 34005MPS 310V010 CAVOK 15/M02 Q1018 R04/CLRD70 NOSIG RMK QFE760/1014

TAF za 51.15°S 51.54°I (UARR)

From till


From till Wind 360º 10kt. Visibility 10km or more. Scattered Clouds 3300ft.
Temporarly from till Visibility 3100m. Mist . Scattered Clouds 1100ft.

Neobrađeno: TAF UARR 182300Z 1900/1909 36005MPS 9999 SCT033 TEMPO 1900/1904 3100 BR SCT011

Trenutni satelitski snimci i slike kiše za 51.15°S 51.54°I

Marker lokacije postavljen je na 51.15°S 51.54°I. [Više]

Satelitski snimci u realnom vremenu kombinuju vidljivu svetlost tokom dana sa infracrvenim zračenjem tokom noći. Noću slika nije tamna jer infracrveno zračenje može otkriti temperaturne razlike. Nažalost, niski oblaci i magla teško se mogu razlikovati od temperature zemlje tako da mogu biti skoro nevidljivi tokom noći. Meteosat satelitski snimci za Evropu se ažuriraju u realnom vremenu na svakih 5 minuta. Slnimci GOES-16/GOES-17 (Severna i Južna Amerika) and Himawari (Azia) ažuriraju se na svakih 10 minuta.

Autorsko pravo 2021 EUMETSAT / meteoblue. / Autorsko pravo 2021 meteoblue

Radar i padavine kratka prognoza za 51.15°S 51.54°I

Rominjati
Svjetlo
Umjereno
Teška
Vrlo teško
Zdravo

Marker lokacije postavljen je na 51.15°S 51.54°I. Ova animacija prikazuje radar padavina za poslednji sat, kao i 1h prognozu. Пљусак кише или слаб снег може бити невидљив за радар. Интензитет падавина је кодиран у боји, у распону од светло плаве до наранџасте.